sensor_id;sensor_type;location;lat;lon;timestamp;P1;durP1;ratioP1;P2;durP2;ratioP2
42614;SDS011;28754;47.700;7.924;2024-01-11T00:01:15;6.70;;;3.70;;
42614;SDS011;28754;47.700;7.924;2024-01-11T00:04:01;7.10;;;4.18;;
42614;SDS011;28754;47.700;7.924;2024-01-11T00:06:49;7.07;;;3.60;;
42614;SDS011;28754;47.700;7.924;2024-01-11T00:09:40;9.20;;;4.40;;
42614;SDS011;28754;47.700;7.924;2024-01-11T00:12:28;8.07;;;4.35;;
42614;SDS011;28754;47.700;7.924;2024-01-11T00:15:15;6.55;;;4.07;;
42614;SDS011;28754;47.700;7.924;2024-01-11T00:18:02;6.40;;;3.85;;
42614;SDS011;28754;47.700;7.924;2024-01-11T00:20:48;6.90;;;3.40;;
42614;SDS011;28754;47.700;7.924;2024-01-11T00:23:35;6.40;;;3.22;;
42614;SDS011;28754;47.700;7.924;2024-01-11T00:26:22;5.20;;;2.97;;
42614;SDS011;28754;47.700;7.924;2024-01-11T00:29:08;4.95;;;2.75;;
42614;SDS011;28754;47.700;7.924;2024-01-11T00:31:55;4.10;;;2.50;;
42614;SDS011;28754;47.700;7.924;2024-01-11T00:34:42;3.25;;;1.83;;
42614;SDS011;28754;47.700;7.924;2024-01-11T00:37:29;2.10;;;1.58;;
42614;SDS011;28754;47.700;7.924;2024-01-11T00:40:15;1.00;;;0.88;;
42614;SDS011;28754;47.700;7.924;2024-01-11T00:43:02;1.52;;;0.90;;
42614;SDS011;28754;47.700;7.924;2024-01-11T00:45:49;2.17;;;1.58;;
42614;SDS011;28754;47.700;7.924;2024-01-11T00:48:35;2.63;;;1.90;;
42614;SDS011;28754;47.700;7.924;2024-01-11T00:51:22;3.97;;;2.38;;
42614;SDS011;28754;47.700;7.924;2024-01-11T00:54:09;4.88;;;1.95;;
42614;SDS011;28754;47.700;7.924;2024-01-11T00:56:56;1.70;;;1.08;;
42614;SDS011;28754;47.700;7.924;2024-01-11T00:59:43;2.45;;;1.33;;
42614;SDS011;28754;47.700;7.924;2024-01-11T01:02:30;2.97;;;1.60;;
42614;SDS011;28754;47.700;7.924;2024-01-11T01:05:16;1.33;;;0.65;;
42614;SDS011;28754;47.700;7.924;2024-01-11T01:08:03;1.13;;;0.85;;
42614;SDS011;28754;47.700;7.924;2024-01-11T01:10:50;2.20;;;1.30;;
42614;SDS011;28754;47.700;7.924;2024-01-11T01:13:36;2.30;;;1.60;;
42614;SDS011;28754;47.700;7.924;2024-01-11T01:16:23;4.10;;;1.75;;
42614;SDS011;28754;47.700;7.924;2024-01-11T01:19:10;3.08;;;2.20;;
42614;SDS011;28754;47.700;7.924;2024-01-11T01:21:56;3.15;;;1.67;;
42614;SDS011;28754;47.700;7.924;2024-01-11T01:24:43;3.08;;;1.73;;
42614;SDS011;28754;47.700;7.924;2024-01-11T01:27:30;2.15;;;1.00;;
42614;SDS011;28754;47.700;7.924;2024-01-11T01:30:16;2.45;;;1.40;;
42614;SDS011;28754;47.700;7.924;2024-01-11T01:33:03;2.15;;;0.75;;
42614;SDS011;28754;47.700;7.924;2024-01-11T01:35:50;2.42;;;1.35;;
42614;SDS011;28754;47.700;7.924;2024-01-11T01:38:36;1.67;;;1.00;;
42614;SDS011;28754;47.700;7.924;2024-01-11T01:41:23;2.88;;;1.20;;
42614;SDS011;28754;47.700;7.924;2024-01-11T01:44:10;1.73;;;1.42;;
42614;SDS011;28754;47.700;7.924;2024-01-11T01:46:56;1.40;;;0.70;;
42614;SDS011;28754;47.700;7.924;2024-01-11T01:49:43;1.47;;;0.90;;
42614;SDS011;28754;47.700;7.924;2024-01-11T01:52:32;1.30;;;0.93;;
42614;SDS011;28754;47.700;7.924;2024-01-11T01:55:20;1.98;;;1.02;;
42614;SDS011;28754;47.700;7.924;2024-01-11T01:58:07;2.10;;;1.10;;
42614;SDS011;28754;47.700;7.924;2024-01-11T02:00:54;0.90;;;0.80;;
42614;SDS011;28754;47.700;7.924;2024-01-11T02:03:40;0.70;;;0.70;;
42614;SDS011;28754;47.700;7.924;2024-01-11T02:06:28;1.50;;;1.40;;
42614;SDS011;28754;47.700;7.924;2024-01-11T02:09:20;3.30;;;0.90;;
42614;SDS011;28754;47.700;7.924;2024-01-11T02:12:06;2.17;;;1.30;;
42614;SDS011;28754;47.700;7.924;2024-01-11T02:14:56;1.87;;;0.90;;
42614;SDS011;28754;47.700;7.924;2024-01-11T02:17:43;4.05;;;1.13;;
42614;SDS011;28754;47.700;7.924;2024-01-11T02:20:30;3.58;;;2.03;;
42614;SDS011;28754;47.700;7.924;2024-01-11T02:23:19;5.95;;;2.35;;
42614;SDS011;28754;47.700;7.924;2024-01-11T02:26:10;7.30;;;3.03;;
42614;SDS011;28754;47.700;7.924;2024-01-11T02:28:57;30.48;;;10.65;;
42614;SDS011;28754;47.700;7.924;2024-01-11T02:31:44;97.22;;;33.63;;
42614;SDS011;28754;47.700;7.924;2024-01-11T02:34:31;90.07;;;29.47;;
42614;SDS011;28754;47.700;7.924;2024-01-11T02:37:19;51.65;;;18.52;;
42614;SDS011;28754;47.700;7.924;2024-01-11T02:40:07;45.85;;;14.10;;
42614;SDS011;28754;47.700;7.924;2024-01-11T02:42:54;33.97;;;10.25;;
42614;SDS011;28754;47.700;7.924;2024-01-11T02:45:41;26.38;;;9.13;;
42614;SDS011;28754;47.700;7.924;2024-01-11T02:48:30;16.33;;;6.17;;
42614;SDS011;28754;47.700;7.924;2024-01-11T02:51:17;33.47;;;11.97;;
42614;SDS011;28754;47.700;7.924;2024-01-11T02:54:04;49.93;;;16.40;;
42614;SDS011;28754;47.700;7.924;2024-01-11T02:56:51;42.13;;;12.02;;
42614;SDS011;28754;47.700;7.924;2024-01-11T02:59:37;37.60;;;13.00;;
42614;SDS011;28754;47.700;7.924;2024-01-11T03:02:25;13.53;;;6.37;;
42614;SDS011;28754;47.700;7.924;2024-01-11T03:05:12;10.45;;;3.72;;
42614;SDS011;28754;47.700;7.924;2024-01-11T03:07:59;7.97;;;3.40;;
42614;SDS011;28754;47.700;7.924;2024-01-11T03:10:45;11.63;;;4.35;;
42614;SDS011;28754;47.700;7.924;2024-01-11T03:13:32;7.77;;;3.27;;
42614;SDS011;28754;47.700;7.924;2024-01-11T03:16:19;6.22;;;2.67;;
42614;SDS011;28754;47.700;7.924;2024-01-11T03:19:05;8.40;;;3.53;;
42614;SDS011;28754;47.700;7.924;2024-01-11T03:21:52;4.20;;;2.90;;
42614;SDS011;28754;47.700;7.924;2024-01-11T03:24:39;4.60;;;2.30;;
42614;SDS011;28754;47.700;7.924;2024-01-11T03:27:25;4.57;;;3.10;;
42614;SDS011;28754;47.700;7.924;2024-01-11T03:30:12;4.20;;;2.33;;
42614;SDS011;28754;47.700;7.924;2024-01-11T03:32:59;7.25;;;4.20;;
42614;SDS011;28754;47.700;7.924;2024-01-11T03:35:46;5.85;;;3.28;;
42614;SDS011;28754;47.700;7.924;2024-01-11T03:38:32;6.55;;;3.42;;
42614;SDS011;28754;47.700;7.924;2024-01-11T03:41:19;7.77;;;4.67;;
42614;SDS011;28754;47.700;7.924;2024-01-11T03:44:06;6.93;;;4.07;;
42614;SDS011;28754;47.700;7.924;2024-01-11T03:46:52;6.23;;;4.03;;
42614;SDS011;28754;47.700;7.924;2024-01-11T03:49:39;5.30;;;3.07;;
42614;SDS011;28754;47.700;7.924;2024-01-11T03:52:25;8.50;;;3.70;;
42614;SDS011;28754;47.700;7.924;2024-01-11T03:55:12;10.00;;;4.83;;
42614;SDS011;28754;47.700;7.924;2024-01-11T03:57:59;6.17;;;3.67;;
42614;SDS011;28754;47.700;7.924;2024-01-11T04:00:45;11.07;;;4.50;;
42614;SDS011;28754;47.700;7.924;2024-01-11T04:03:32;24.47;;;5.33;;
42614;SDS011;28754;47.700;7.924;2024-01-11T04:06:22;65.03;;;6.97;;
42614;SDS011;28754;47.700;7.924;2024-01-11T04:09:10;8.53;;;3.60;;
42614;SDS011;28754;47.700;7.924;2024-01-11T04:11:56;8.70;;;3.93;;
42614;SDS011;28754;47.700;7.924;2024-01-11T04:14:43;7.53;;;4.77;;
42614;SDS011;28754;47.700;7.924;2024-01-11T04:17:30;7.63;;;4.10;;
42614;SDS011;28754;47.700;7.924;2024-01-11T04:20:16;8.07;;;4.63;;
42614;SDS011;28754;47.700;7.924;2024-01-11T04:23:03;12.83;;;6.47;;
42614;SDS011;28754;47.700;7.924;2024-01-11T04:25:50;8.03;;;5.40;;
42614;SDS011;28754;47.700;7.924;2024-01-11T04:28:39;6.70;;;4.20;;
42614;SDS011;28754;47.700;7.924;2024-01-11T04:31:26;7.30;;;3.60;;
42614;SDS011;28754;47.700;7.924;2024-01-11T04:34:13;8.13;;;5.03;;
42614;SDS011;28754;47.700;7.924;2024-01-11T04:37:00;5.47;;;3.70;;
42614;SDS011;28754;47.700;7.924;2024-01-11T04:39:47;8.60;;;3.53;;
42614;SDS011;28754;47.700;7.924;2024-01-11T04:42:33;7.07;;;3.47;;
42614;SDS011;28754;47.700;7.924;2024-01-11T04:45:20;7.00;;;4.53;;
42614;SDS011;28754;47.700;7.924;2024-01-11T04:48:07;8.73;;;5.40;;
42614;SDS011;28754;47.700;7.924;2024-01-11T04:50:54;10.60;;;7.10;;
42614;SDS011;28754;47.700;7.924;2024-01-11T04:53:41;11.27;;;4.50;;
42614;SDS011;28754;47.700;7.924;2024-01-11T04:56:29;9.00;;;5.73;;
42614;SDS011;28754;47.700;7.924;2024-01-11T04:59:16;10.83;;;6.87;;
42614;SDS011;28754;47.700;7.924;2024-01-11T05:02:02;10.80;;;6.87;;
42614;SDS011;28754;47.700;7.924;2024-01-11T05:04:49;8.27;;;5.87;;
42614;SDS011;28754;47.700;7.924;2024-01-11T05:07:36;8.50;;;5.77;;
42614;SDS011;28754;47.700;7.924;2024-01-11T05:10:22;6.80;;;4.80;;
42614;SDS011;28754;47.700;7.924;2024-01-11T05:13:09;5.77;;;3.67;;
42614;SDS011;28754;47.700;7.924;2024-01-11T05:15:56;6.60;;;3.83;;
42614;SDS011;28754;47.700;7.924;2024-01-11T05:18:43;8.80;;;4.30;;
42614;SDS011;28754;47.700;7.924;2024-01-11T05:21:30;7.23;;;4.87;;
42614;SDS011;28754;47.700;7.924;2024-01-11T05:24:16;5.17;;;3.53;;
42614;SDS011;28754;47.700;7.924;2024-01-11T05:27:03;4.63;;;3.07;;
42614;SDS011;28754;47.700;7.924;2024-01-11T05:29:50;4.60;;;3.20;;
42614;SDS011;28754;47.700;7.924;2024-01-11T05:32:37;4.50;;;3.40;;
42614;SDS011;28754;47.700;7.924;2024-01-11T05:35:23;4.83;;;3.00;;
42614;SDS011;28754;47.700;7.924;2024-01-11T05:38:13;8.60;;;5.90;;
42614;SDS011;28754;47.700;7.924;2024-01-11T05:40:59;7.43;;;4.17;;
42614;SDS011;28754;47.700;7.924;2024-01-11T05:43:46;5.77;;;3.70;;
42614;SDS011;28754;47.700;7.924;2024-01-11T05:46:33;11.47;;;6.43;;
42614;SDS011;28754;47.700;7.924;2024-01-11T05:49:20;13.40;;;6.33;;
42614;SDS011;28754;47.700;7.924;2024-01-11T05:52:07;45.40;;;5.93;;
42614;SDS011;28754;47.700;7.924;2024-01-11T05:54:54;14.77;;;4.73;;
42614;SDS011;28754;47.700;7.924;2024-01-11T05:57:40;18.27;;;4.93;;
42614;SDS011;28754;47.700;7.924;2024-01-11T06:00:27;10.63;;;4.47;;
42614;SDS011;28754;47.700;7.924;2024-01-11T06:03:14;21.00;;;5.67;;
42614;SDS011;28754;47.700;7.924;2024-01-11T06:06:01;53.13;;;7.60;;
42614;SDS011;28754;47.700;7.924;2024-01-11T06:08:49;21.13;;;5.90;;
42614;SDS011;28754;47.700;7.924;2024-01-11T06:11:36;9.17;;;4.53;;
42614;SDS011;28754;47.700;7.924;2024-01-11T06:14:23;9.63;;;5.87;;
42614;SDS011;28754;47.700;7.924;2024-01-11T06:17:09;9.73;;;5.90;;
42614;SDS011;28754;47.700;7.924;2024-01-11T06:19:57;8.57;;;4.53;;
42614;SDS011;28754;47.700;7.924;2024-01-11T06:22:43;9.30;;;4.37;;
42614;SDS011;28754;47.700;7.924;2024-01-11T06:25:30;8.53;;;4.97;;
42614;SDS011;28754;47.700;7.924;2024-01-11T06:28:17;9.20;;;5.10;;
42614;SDS011;28754;47.700;7.924;2024-01-11T06:31:03;8.17;;;5.07;;
42614;SDS011;28754;47.700;7.924;2024-01-11T06:33:50;10.23;;;4.97;;
42614;SDS011;28754;47.700;7.924;2024-01-11T06:36:37;9.57;;;5.50;;
42614;SDS011;28754;47.700;7.924;2024-01-11T06:39:23;5.73;;;4.17;;
42614;SDS011;28754;47.700;7.924;2024-01-11T06:42:10;7.67;;;4.80;;
42614;SDS011;28754;47.700;7.924;2024-01-11T06:44:57;7.07;;;4.97;;
42614;SDS011;28754;47.700;7.924;2024-01-11T06:47:43;8.20;;;4.60;;
42614;SDS011;28754;47.700;7.924;2024-01-11T06:50:32;6.37;;;4.53;;
42614;SDS011;28754;47.700;7.924;2024-01-11T06:53:18;7.17;;;4.33;;
42614;SDS011;28754;47.700;7.924;2024-01-11T06:56:13;15.13;;;9.63;;
42614;SDS011;28754;47.700;7.924;2024-01-11T06:59:01;14.50;;;9.13;;
42614;SDS011;28754;47.700;7.924;2024-01-11T07:01:48;13.30;;;9.07;;
42614;SDS011;28754;47.700;7.924;2024-01-11T07:04:35;11.67;;;8.67;;
42614;SDS011;28754;47.700;7.924;2024-01-11T07:07:21;11.77;;;8.17;;
42614;SDS011;28754;47.700;7.924;2024-01-11T07:10:08;13.43;;;8.33;;
42614;SDS011;28754;47.700;7.924;2024-01-11T07:12:55;20.20;;;10.40;;
42614;SDS011;28754;47.700;7.924;2024-01-11T07:15:42;27.87;;;18.07;;
42614;SDS011;28754;47.700;7.924;2024-01-11T07:18:30;26.27;;;16.30;;
42614;SDS011;28754;47.700;7.924;2024-01-11T07:21:21;17.23;;;12.20;;
42614;SDS011;28754;47.700;7.924;2024-01-11T07:24:15;14.20;;;10.27;;
42614;SDS011;28754;47.700;7.924;2024-01-11T07:27:01;16.47;;;12.43;;
42614;SDS011;28754;47.700;7.924;2024-01-11T07:29:50;15.23;;;13.10;;
42614;SDS011;28754;47.700;7.924;2024-01-11T07:32:37;20.30;;;13.93;;
42614;SDS011;28754;47.700;7.924;2024-01-11T07:35:24;18.67;;;12.57;;
42614;SDS011;28754;47.700;7.924;2024-01-11T07:38:10;11.70;;;7.07;;
42614;SDS011;28754;47.700;7.924;2024-01-11T07:40:57;32.70;;;8.43;;
42614;SDS011;28754;47.700;7.924;2024-01-11T07:43:44;46.47;;;8.13;;
42614;SDS011;28754;47.700;7.924;2024-01-11T07:46:30;131.80;;;12.40;;
42614;SDS011;28754;47.700;7.924;2024-01-11T07:49:17;102.67;;;11.07;;
42614;SDS011;28754;47.700;7.924;2024-01-11T07:52:04;98.77;;;11.10;;
42614;SDS011;28754;47.700;7.924;2024-01-11T07:54:51;187.50;;;14.87;;
42614;SDS011;28754;47.700;7.924;2024-01-11T07:57:40;135.40;;;14.80;;
42614;SDS011;28754;47.700;7.924;2024-01-11T08:00:26;215.20;;;16.83;;
42614;SDS011;28754;47.700;7.924;2024-01-11T08:03:13;164.70;;;15.70;;
42614;SDS011;28754;47.700;7.924;2024-01-11T08:06:00;230.23;;;16.77;;
42614;SDS011;28754;47.700;7.924;2024-01-11T08:08:47;252.30;;;18.03;;
42614;SDS011;28754;47.700;7.924;2024-01-11T08:11:37;256.13;;;17.77;;
42614;SDS011;28754;47.700;7.924;2024-01-11T08:14:24;254.03;;;16.70;;
42614;SDS011;28754;47.700;7.924;2024-01-11T08:17:10;201.93;;;15.30;;
42614;SDS011;28754;47.700;7.924;2024-01-11T08:19:57;220.00;;;15.30;;
42614;SDS011;28754;47.700;7.924;2024-01-11T08:22:44;118.40;;;10.27;;
42614;SDS011;28754;47.700;7.924;2024-01-11T08:25:32;96.53;;;10.63;;
42614;SDS011;28754;47.700;7.924;2024-01-11T08:28:19;23.63;;;6.33;;
42614;SDS011;28754;47.700;7.924;2024-01-11T08:31:06;27.10;;;6.40;;
42614;SDS011;28754;47.700;7.924;2024-01-11T08:33:53;22.57;;;5.70;;
42614;SDS011;28754;47.700;7.924;2024-01-11T08:36:40;16.75;;;4.65;;
42614;SDS011;28754;47.700;7.924;2024-01-11T08:39:26;13.50;;;4.13;;
42614;SDS011;28754;47.700;7.924;2024-01-11T08:42:13;9.07;;;4.63;;
42614;SDS011;28754;47.700;7.924;2024-01-11T08:45:01;26.65;;;5.80;;
42614;SDS011;28754;47.700;7.924;2024-01-11T08:47:52;38.97;;;6.35;;
42614;SDS011;28754;47.700;7.924;2024-01-11T08:50:39;30.90;;;6.60;;
42614;SDS011;28754;47.700;7.924;2024-01-11T08:53:25;22.00;;;7.18;;
42614;SDS011;28754;47.700;7.924;2024-01-11T08:56:12;24.65;;;6.55;;
42614;SDS011;28754;47.700;7.924;2024-01-11T08:58:59;20.17;;;6.13;;
42614;SDS011;28754;47.700;7.924;2024-01-11T09:01:46;27.25;;;7.85;;
42614;SDS011;28754;47.700;7.924;2024-01-11T09:04:33;22.45;;;6.85;;
42614;SDS011;28754;47.700;7.924;2024-01-11T09:07:20;16.25;;;6.50;;
42614;SDS011;28754;47.700;7.924;2024-01-11T09:10:07;16.27;;;7.05;;
42614;SDS011;28754;47.700;7.924;2024-01-11T09:12:58;15.45;;;6.38;;
42614;SDS011;28754;47.700;7.924;2024-01-11T09:15:45;27.77;;;8.40;;
42614;SDS011;28754;47.700;7.924;2024-01-11T09:18:31;18.33;;;7.28;;
42614;SDS011;28754;47.700;7.924;2024-01-11T09:21:18;13.82;;;6.07;;
42614;SDS011;28754;47.700;7.924;2024-01-11T09:24:05;12.13;;;5.43;;
42614;SDS011;28754;47.700;7.924;2024-01-11T09:26:52;12.63;;;6.45;;
42614;SDS011;28754;47.700;7.924;2024-01-11T09:29:45;17.52;;;7.63;;
42614;SDS011;28754;47.700;7.924;2024-01-11T09:32:32;23.08;;;9.20;;
42614;SDS011;28754;47.700;7.924;2024-01-11T09:35:18;20.90;;;6.88;;
42614;SDS011;28754;47.700;7.924;2024-01-11T09:38:05;19.70;;;6.55;;
42614;SDS011;28754;47.700;7.924;2024-01-11T09:40:57;34.28;;;8.93;;
42614;SDS011;28754;47.700;7.924;2024-01-11T09:43:54;40.17;;;7.25;;
42614;SDS011;28754;47.700;7.924;2024-01-11T09:46:45;42.90;;;8.25;;
42614;SDS011;28754;47.700;7.924;2024-01-11T09:49:33;40.90;;;7.80;;
42614;SDS011;28754;47.700;7.924;2024-01-11T09:52:23;44.92;;;8.23;;
42614;SDS011;28754;47.700;7.924;2024-01-11T09:55:12;46.70;;;8.20;;
42614;SDS011;28754;47.700;7.924;2024-01-11T09:57:59;39.65;;;8.43;;
42614;SDS011;28754;47.700;7.924;2024-01-11T10:00:47;38.95;;;10.35;;
42614;SDS011;28754;47.700;7.924;2024-01-11T10:03:41;38.93;;;11.03;;
42614;SDS011;28754;47.700;7.924;2024-01-11T10:06:27;35.22;;;8.95;;
42614;SDS011;28754;47.700;7.924;2024-01-11T10:09:19;25.75;;;10.10;;
42614;SDS011;28754;47.700;7.924;2024-01-11T10:12:06;25.45;;;7.57;;
42614;SDS011;28754;47.700;7.924;2024-01-11T10:14:55;39.17;;;8.68;;
42614;SDS011;28754;47.700;7.924;2024-01-11T10:17:51;46.30;;;8.40;;
42614;SDS011;28754;47.700;7.924;2024-01-11T10:20:37;31.13;;;7.65;;
42614;SDS011;28754;47.700;7.924;2024-01-11T10:23:24;30.52;;;9.02;;
42614;SDS011;28754;47.700;7.924;2024-01-11T10:26:11;66.30;;;9.85;;
42614;SDS011;28754;47.700;7.924;2024-01-11T10:29:01;27.58;;;7.90;;
42614;SDS011;28754;47.700;7.924;2024-01-11T10:31:48;15.13;;;7.18;;
42614;SDS011;28754;47.700;7.924;2024-01-11T10:34:36;30.85;;;7.60;;
42614;SDS011;28754;47.700;7.924;2024-01-11T10:37:25;24.58;;;7.15;;
42614;SDS011;28754;47.700;7.924;2024-01-11T10:40:14;51.00;;;10.48;;
42614;SDS011;28754;47.700;7.924;2024-01-11T10:43:03;21.02;;;8.27;;
42614;SDS011;28754;47.700;7.924;2024-01-11T10:45:59;25.63;;;8.57;;
42614;SDS011;28754;47.700;7.924;2024-01-11T10:48:50;28.02;;;8.25;;
42614;SDS011;28754;47.700;7.924;2024-01-11T10:51:53;36.28;;;7.72;;
42614;SDS011;28754;47.700;7.924;2024-01-11T10:54:51;14.57;;;7.93;;
42614;SDS011;28754;47.700;7.924;2024-01-11T10:57:38;32.83;;;8.15;;
42614;SDS011;28754;47.700;7.924;2024-01-11T11:00:27;35.72;;;8.60;;
42614;SDS011;28754;47.700;7.924;2024-01-11T11:03:14;27.65;;;9.02;;
42614;SDS011;28754;47.700;7.924;2024-01-11T11:06:06;19.65;;;8.85;;
42614;SDS011;28754;47.700;7.924;2024-01-11T11:08:53;18.63;;;6.82;;
42614;SDS011;28754;47.700;7.924;2024-01-11T11:11:40;23.13;;;7.93;;
42614;SDS011;28754;47.700;7.924;2024-01-11T11:14:27;17.10;;;7.38;;
42614;SDS011;28754;47.700;7.924;2024-01-11T11:17:15;16.65;;;7.90;;
42614;SDS011;28754;47.700;7.924;2024-01-11T11:20:02;10.95;;;7.07;;
42614;SDS011;28754;47.700;7.924;2024-01-11T11:23:04;11.13;;;7.60;;
42614;SDS011;28754;47.700;7.924;2024-01-11T11:25:53;24.77;;;8.52;;
42614;SDS011;28754;47.700;7.924;2024-01-11T11:28:44;70.05;;;11.68;;
42614;SDS011;28754;47.700;7.924;2024-01-11T11:31:34;122.15;;;15.13;;
42614;SDS011;28754;47.700;7.924;2024-01-11T11:34:42;86.40;;;14.25;;
42614;SDS011;28754;47.700;7.924;2024-01-11T11:37:30;66.22;;;14.50;;
42614;SDS011;28754;47.700;7.924;2024-01-11T11:40:20;47.60;;;14.30;;
42614;SDS011;28754;47.700;7.924;2024-01-11T11:43:08;62.58;;;16.23;;
42614;SDS011;28754;47.700;7.924;2024-01-11T11:45:55;44.75;;;15.85;;
42614;SDS011;28754;47.700;7.924;2024-01-11T11:51:32;47.50;;;14.95;;
42614;SDS011;28754;47.700;7.924;2024-01-11T11:54:20;40.60;;;14.68;;
42614;SDS011;28754;47.700;7.924;2024-01-11T11:57:10;33.10;;;13.57;;
42614;SDS011;28754;47.700;7.924;2024-01-11T11:59:57;31.50;;;15.48;;
42614;SDS011;28754;47.700;7.924;2024-01-11T12:02:44;61.78;;;18.02;;
42614;SDS011;28754;47.700;7.924;2024-01-11T12:05:33;23.05;;;14.38;;
42614;SDS011;28754;47.700;7.924;2024-01-11T12:08:24;70.13;;;36.13;;
42614;SDS011;28754;47.700;7.924;2024-01-11T12:11:14;35.65;;;14.05;;
42614;SDS011;28754;47.700;7.924;2024-01-11T12:14:05;43.65;;;15.68;;
42614;SDS011;28754;47.700;7.924;2024-01-11T12:16:58;37.70;;;17.05;;
42614;SDS011;28754;47.700;7.924;2024-01-11T12:19:44;17.70;;;12.38;;
42614;SDS011;28754;47.700;7.924;2024-01-11T12:22:31;23.80;;;15.38;;
42614;SDS011;28754;47.700;7.924;2024-01-11T12:25:18;14.50;;;9.85;;
42614;SDS011;28754;47.700;7.924;2024-01-11T12:28:05;15.35;;;10.55;;
42614;SDS011;28754;47.700;7.924;2024-01-11T12:30:52;19.92;;;11.52;;
42614;SDS011;28754;47.700;7.924;2024-01-11T12:33:39;20.88;;;13.73;;
42614;SDS011;28754;47.700;7.924;2024-01-11T12:36:27;13.93;;;9.85;;
42614;SDS011;28754;47.700;7.924;2024-01-11T12:39:16;21.63;;;13.60;;
42614;SDS011;28754;47.700;7.924;2024-01-11T12:42:03;26.02;;;14.35;;
42614;SDS011;28754;47.700;7.924;2024-01-11T12:44:50;49.70;;;15.52;;
42614;SDS011;28754;47.700;7.924;2024-01-11T12:47:37;51.15;;;15.43;;
42614;SDS011;28754;47.700;7.924;2024-01-11T12:50:24;54.97;;;14.73;;
42614;SDS011;28754;47.700;7.924;2024-01-11T12:53:13;29.70;;;15.10;;
42614;SDS011;28754;47.700;7.924;2024-01-11T12:56:06;44.47;;;12.70;;
42614;SDS011;28754;47.700;7.924;2024-01-11T12:59:07;23.27;;;13.35;;
42614;SDS011;28754;47.700;7.924;2024-01-11T13:01:55;34.00;;;14.52;;
42614;SDS011;28754;47.700;7.924;2024-01-11T13:04:43;48.20;;;15.52;;
42614;SDS011;28754;47.700;7.924;2024-01-11T13:07:32;55.42;;;16.58;;
42614;SDS011;28754;47.700;7.924;2024-01-11T13:10:19;51.03;;;16.63;;
42614;SDS011;28754;47.700;7.924;2024-01-11T13:13:06;76.93;;;18.40;;
42614;SDS011;28754;47.700;7.924;2024-01-11T13:15:54;49.47;;;19.13;;
42614;SDS011;28754;47.700;7.924;2024-01-11T13:18:40;55.25;;;16.85;;
42614;SDS011;28754;47.700;7.924;2024-01-11T13:21:27;38.35;;;14.90;;
42614;SDS011;28754;47.700;7.924;2024-01-11T13:24:14;61.55;;;16.40;;
42614;SDS011;28754;47.700;7.924;2024-01-11T13:27:01;76.60;;;17.10;;
42614;SDS011;28754;47.700;7.924;2024-01-11T13:29:48;55.75;;;15.48;;
42614;SDS011;28754;47.700;7.924;2024-01-11T13:32:34;79.95;;;16.05;;
42614;SDS011;28754;47.700;7.924;2024-01-11T13:35:21;57.72;;;15.60;;
42614;SDS011;28754;47.700;7.924;2024-01-11T13:38:08;52.60;;;16.95;;
42614;SDS011;28754;47.700;7.924;2024-01-11T13:40:54;92.68;;;19.85;;
42614;SDS011;28754;47.700;7.924;2024-01-11T13:43:41;56.08;;;16.17;;
42614;SDS011;28754;47.700;7.924;2024-01-11T13:46:28;75.93;;;17.60;;
42614;SDS011;28754;47.700;7.924;2024-01-11T13:49:14;83.68;;;19.60;;
42614;SDS011;28754;47.700;7.924;2024-01-11T13:52:01;78.32;;;18.30;;
42614;SDS011;28754;47.700;7.924;2024-01-11T13:54:50;118.13;;;19.10;;
42614;SDS011;28754;47.700;7.924;2024-01-11T13:57:37;116.15;;;20.20;;
42614;SDS011;28754;47.700;7.924;2024-01-11T14:00:24;83.95;;;18.92;;
42614;SDS011;28754;47.700;7.924;2024-01-11T14:03:11;70.93;;;17.70;;
42614;SDS011;28754;47.700;7.924;2024-01-11T14:05:57;50.38;;;18.42;;
42614;SDS011;28754;47.700;7.924;2024-01-11T14:08:45;76.97;;;17.92;;
42614;SDS011;28754;47.700;7.924;2024-01-11T14:11:31;42.17;;;18.52;;
42614;SDS011;28754;47.700;7.924;2024-01-11T14:14:18;46.95;;;18.88;;
42614;SDS011;28754;47.700;7.924;2024-01-11T14:17:06;130.98;;;25.90;;
42614;SDS011;28754;47.700;7.924;2024-01-11T14:19:53;76.45;;;21.58;;
42614;SDS011;28754;47.700;7.924;2024-01-11T14:22:40;162.57;;;24.30;;
42614;SDS011;28754;47.700;7.924;2024-01-11T14:25:27;152.10;;;25.02;;
42614;SDS011;28754;47.700;7.924;2024-01-11T14:28:15;183.60;;;23.65;;
42614;SDS011;28754;47.700;7.924;2024-01-11T14:31:02;150.23;;;22.40;;
42614;SDS011;28754;47.700;7.924;2024-01-11T14:33:50;104.10;;;19.50;;
42614;SDS011;28754;47.700;7.924;2024-01-11T14:36:37;110.05;;;19.45;;
42614;SDS011;28754;47.700;7.924;2024-01-11T14:39:24;114.05;;;20.52;;
42614;SDS011;28754;47.700;7.924;2024-01-11T14:42:11;205.75;;;26.35;;
42614;SDS011;28754;47.700;7.924;2024-01-11T14:44:58;65.07;;;18.05;;
42614;SDS011;28754;47.700;7.924;2024-01-11T14:47:45;83.25;;;18.63;;
42614;SDS011;28754;47.700;7.924;2024-01-11T14:50:31;164.45;;;23.70;;
42614;SDS011;28754;47.700;7.924;2024-01-11T14:53:18;98.40;;;23.05;;
42614;SDS011;28754;47.700;7.924;2024-01-11T14:56:05;102.93;;;20.63;;
42614;SDS011;28754;47.700;7.924;2024-01-11T14:58:52;112.50;;;21.02;;
42614;SDS011;28754;47.700;7.924;2024-01-11T15:01:38;116.57;;;21.95;;
42614;SDS011;28754;47.700;7.924;2024-01-11T15:04:25;123.28;;;23.52;;
42614;SDS011;28754;47.700;7.924;2024-01-11T15:07:12;121.22;;;22.13;;
42614;SDS011;28754;47.700;7.924;2024-01-11T15:09:58;135.13;;;21.52;;
42614;SDS011;28754;47.700;7.924;2024-01-11T15:12:45;102.80;;;20.42;;
42614;SDS011;28754;47.700;7.924;2024-01-11T15:15:32;110.13;;;20.42;;
42614;SDS011;28754;47.700;7.924;2024-01-11T15:18:18;117.35;;;21.98;;
42614;SDS011;28754;47.700;7.924;2024-01-11T15:21:05;127.78;;;22.52;;
42614;SDS011;28754;47.700;7.924;2024-01-11T15:23:52;143.68;;;22.75;;
42614;SDS011;28754;47.700;7.924;2024-01-11T15:26:38;161.65;;;23.27;;
42614;SDS011;28754;47.700;7.924;2024-01-11T15:29:26;129.82;;;21.90;;
42614;SDS011;28754;47.700;7.924;2024-01-11T15:32:13;176.63;;;24.25;;
42614;SDS011;28754;47.700;7.924;2024-01-11T15:35:00;127.82;;;24.48;;
42614;SDS011;28754;47.700;7.924;2024-01-11T15:37:46;98.93;;;22.50;;
42614;SDS011;28754;47.700;7.924;2024-01-11T15:40:34;83.40;;;20.70;;
42614;SDS011;28754;47.700;7.924;2024-01-11T15:43:20;167.43;;;23.80;;
42614;SDS011;28754;47.700;7.924;2024-01-11T15:46:07;164.93;;;28.48;;
42614;SDS011;28754;47.700;7.924;2024-01-11T15:48:54;297.98;;;31.25;;
42614;SDS011;28754;47.700;7.924;2024-01-11T15:51:41;215.13;;;26.25;;
42614;SDS011;28754;47.700;7.924;2024-01-11T15:54:27;172.65;;;25.42;;
42614;SDS011;28754;47.700;7.924;2024-01-11T15:57:14;200.85;;;26.77;;
42614;SDS011;28754;47.700;7.924;2024-01-11T16:00:01;120.10;;;23.23;;
42614;SDS011;28754;47.700;7.924;2024-01-11T16:02:57;85.82;;;21.98;;
42614;SDS011;28754;47.700;7.924;2024-01-11T16:05:44;131.68;;;22.85;;
42614;SDS011;28754;47.700;7.924;2024-01-11T16:08:31;143.07;;;23.95;;
42614;SDS011;28754;47.700;7.924;2024-01-11T16:11:18;98.55;;;20.58;;
42614;SDS011;28754;47.700;7.924;2024-01-11T16:14:05;71.38;;;22.00;;
42614;SDS011;28754;47.700;7.924;2024-01-11T16:16:52;81.80;;;22.63;;
42614;SDS011;28754;47.700;7.924;2024-01-11T16:19:38;62.92;;;23.00;;
42614;SDS011;28754;47.700;7.924;2024-01-11T16:22:25;83.25;;;23.42;;
42614;SDS011;28754;47.700;7.924;2024-01-11T16:25:12;76.82;;;22.65;;
42614;SDS011;28754;47.700;7.924;2024-01-11T16:27:58;65.43;;;21.95;;
42614;SDS011;28754;47.700;7.924;2024-01-11T16:30:46;46.55;;;20.75;;
42614;SDS011;28754;47.700;7.924;2024-01-11T16:33:32;114.88;;;24.45;;